Time;durP1;ratioP1;P1;durP2;ratioP2;P2;SDS_P1;SDS_P2;PMS_P1;PMS_P2;Temp;Humidity;BMP_temperature;BMP_pressure;BME280_temperature;BME280_humidity;BME280_pressure;Samples;Min_cycle;Max_cycle;Signal;HPM_P1;HPM_P2
2022/07/27 00:01:32;;;;;;;3.33;1.20;;;;;;;18.96;48.29;95963.00;10292470;28;96884;-66
2022/07/27 00:06:36;;;;;;;4.82;1.20;;;;;;;18.94;47.77;95970.34;10288031;28;99428;-66
2022/07/27 00:11:39;;;;;;;4.50;1.15;;;;;;;18.90;48.82;95967.31;10294258;28;97656;-68
2022/07/27 00:16:43;;;;;;;4.28;1.10;;;;;;;18.75;48.53;95967.50;10277952;28;99174;-67
2022/07/27 00:21:46;;;;;;;2.45;1.25;;;;;;;18.54;49.60;95965.88;10278306;28;98777;-65
2022/07/27 00:26:49;;;;;;;3.47;1.40;;;;;;;18.36;49.74;95966.50;10287098;28;97027;-66
2022/07/27 00:31:53;;;;;;;4.28;1.30;;;;;;;18.26;49.47;95971.38;10278168;28;97153;-66
2022/07/27 00:36:56;;;;;;;2.30;1.25;;;;;;;18.21;50.18;95981.75;10277497;28;98448;-68
2022/07/27 00:41:59;;;;;;;2.92;1.20;;;;;;;18.22;49.85;95980.72;10280016;28;98651;-66
2022/07/27 00:47:03;;;;;;;4.45;1.10;;;;;;;18.19;49.91;95987.25;10284301;28;98694;-65
2022/07/27 00:52:07;;;;;;;1.90;1.13;;;;;;;18.12;50.30;95984.59;10274514;28;96917;-65
2022/07/27 00:57:10;;;;;;;3.30;1.27;;;;;;;18.08;50.47;95978.06;10278886;28;99381;-65
2022/07/27 01:02:15;;;;;;;3.00;1.17;;;;;;;18.20;50.37;95974.81;10288374;28;98647;-65
2022/07/27 01:07:22;;;;;;;2.95;1.27;;;;;;;18.29;49.30;95970.97;10289383;28;97135;-65
2022/07/27 01:12:27;;;;;;;1.30;1.00;;;;;;;18.35;48.37;95974.66;10276101;28;98827;-67
2022/07/27 01:17:31;;;;;;;;;;;;;;;18.34;48.15;95967.72;10278105;28;98015;-65
2022/07/27 01:22:35;;;;;;;2.60;1.00;;;;;;;18.27;49.49;95962.41;10278210;28;98997;-67
2022/07/27 01:27:38;;;;;;;3.03;1.10;;;;;;;18.24;49.85;95963.66;10290854;28;96862;-65
2022/07/27 01:32:41;;;;;;;1.63;1.10;;;;;;;18.27;49.51;95965.91;10285579;28;98179;-66
2022/07/27 01:37:45;;;;;;;3.03;1.20;;;;;;;18.31;50.03;95963.66;10285234;28;96857;-65
2022/07/27 01:42:50;;;;;;;2.70;1.10;;;;;;;18.25;49.74;95949.41;10276436;28;98559;-66
2022/07/27 01:47:53;;;;;;;4.13;1.10;;;;;;;18.04;49.66;95953.03;10284850;28;98357;-65
2022/07/27 01:52:57;;;;;;;2.45;1.00;;;;;;;17.82;50.69;95946.28;10283110;28;98606;-65
2022/07/27 01:58:02;;;;;;;2.20;1.20;;;;;;;17.60;50.35;95943.78;10277726;28;100720;-66
2022/07/27 02:03:07;;;;;;;2.65;1.20;;;;;;;17.39;51.21;95934.19;10285540;28;98608;-65
2022/07/27 02:08:12;;;;;;;1.65;1.10;;;;;;;17.31;51.63;95929.06;10289408;28;98439;-65
2022/07/27 02:13:15;;;;;;;3.58;1.13;;;;;;;17.15;53.15;95911.75;10280000;28;97029;-66
2022/07/27 02:18:24;;;;;;;2.40;1.02;;;;;;;16.98;52.19;95912.06;10284924;28;96974;-65
2022/07/27 02:23:43;;;;;;;2.47;1.55;;;;;;;16.88;53.61;95895.78;10289333;28;98295;-65
2022/07/27 02:28:46;;;;;;;3.03;1.30;;;;;;;16.83;53.86;95892.91;10277887;28;97867;-65
2022/07/27 02:33:49;;;;;;;2.00;1.15;;;;;;;16.73;54.44;95881.91;10283833;28;97824;-65
2022/07/27 02:38:53;;;;;;;2.97;1.30;;;;;;;16.69;54.11;95878.81;10305576;28;96864;-65
2022/07/27 02:43:56;;;;;;;2.13;1.33;;;;;;;16.57;54.81;95883.84;10298807;28;97359;-64
2022/07/27 02:48:58;;;;;;;3.00;1.40;;;;;;;16.51;55.26;95879.31;10297336;28;97063;-65
2022/07/27 02:54:03;;;;;;;2.47;1.38;;;;;;;16.53;55.22;95866.75;10282889;28;96797;-64
2022/07/27 02:59:06;;;;;;;2.40;1.30;;;;;;;16.45;55.10;95874.84;10289400;28;96824;-65
2022/07/27 03:04:09;;;;;;;2.08;1.20;;;;;;;16.29;55.84;95881.19;10275698;28;98653;-65
2022/07/27 03:09:13;;;;;;;2.30;1.42;;;;;;;16.08;56.21;95887.31;10290773;28;96777;-65
2022/07/27 03:14:17;;;;;;;1.48;1.23;;;;;;;15.96;56.61;95891.50;10280655;28;96952;-65
2022/07/27 03:19:20;;;;;;;4.38;1.48;;;;;;;15.87;56.50;95883.72;10281364;28;98745;-65
2022/07/27 03:24:24;;;;;;;3.20;1.55;;;;;;;15.73;57.37;95895.13;10284677;28;98688;-65
2022/07/27 03:29:27;;;;;;;3.37;1.50;;;;;;;15.62;57.80;95891.19;10284509;28;97653;-65
2022/07/27 03:34:31;;;;;;;4.20;1.57;;;;;;;15.53;57.05;95891.47;10278391;28;97680;-64
2022/07/27 03:39:35;;;;;;;1.98;1.33;;;;;;;15.47;58.26;95887.75;10285386;28;97293;-64
2022/07/27 03:44:38;;;;;;;3.53;1.33;;;;;;;15.48;57.98;95892.84;10283229;28;98940;-64
2022/07/27 03:49:41;;;;;;;2.20;1.20;;;;;;;15.55;57.11;95887.66;10279294;28;97593;-64
2022/07/27 03:54:45;;;;;;;2.60;1.40;;;;;;;15.59;57.32;95901.28;10282313;28;97060;-64
2022/07/27 03:59:48;;;;;;;2.80;1.40;;;;;;;15.55;57.59;95899.97;10281088;28;97265;-64
2022/07/27 04:04:51;;;;;;;2.35;1.30;;;;;;;15.52;56.54;95910.91;10283944;28;97302;-65
2022/07/27 04:09:55;;;;;;;2.88;1.27;;;;;;;15.50;55.75;95904.00;10279956;28;97618;-65
2022/07/27 04:14:58;;;;;;;1.98;1.27;;;;;;;15.41;56.73;95899.88;10282539;28;97906;-65
2022/07/27 04:20:01;;;;;;;2.65;1.00;;;;;;;15.48;55.89;95908.63;10279145;28;98678;-64
2022/07/27 04:25:06;;;;;;;2.38;1.17;;;;;;;15.61;55.88;95897.44;10280520;28;99358;-65
2022/07/27 04:30:10;;;;;;;1.67;1.30;;;;;;;15.61;54.98;95907.19;10284522;28;97715;-64
2022/07/27 04:35:13;;;;;;;3.22;1.27;;;;;;;15.55;56.00;95913.97;10271649;28;97766;-65
2022/07/27 04:40:17;;;;;;;3.03;1.30;;;;;;;15.54;56.38;95904.44;10285500;28;98506;-64
2022/07/27 04:45:20;;;;;;;1.70;1.27;;;;;;;15.42;56.30;95904.09;10280341;28;97246;-64
2022/07/27 04:50:24;;;;;;;1.42;1.13;;;;;;;15.36;56.61;95894.34;10281096;28;97053;-64
2022/07/27 04:55:28;;;;;;;2.22;1.23;;;;;;;15.38;56.28;95905.50;10286413;28;100013;-65
2022/07/27 05:00:31;;;;;;;2.30;1.23;;;;;;;15.48;56.15;95900.75;10281087;28;97018;-64
2022/07/27 05:05:33;;;;;;;2.00;1.00;;;;;;;15.62;56.78;95898.28;10268645;28;97337;-65
2022/07/27 05:10:38;;;;;;;1.85;1.35;;;;;;;15.77;56.15;95903.47;10282861;28;97111;-64
2022/07/27 05:15:40;;;;;;;1.87;1.20;;;;;;;15.90;55.68;95900.16;10279050;28;97604;-66
2022/07/27 05:20:55;;;;;;;;;;;;;;;16.04;55.34;95904.53;10295881;28;96881;-66
2022/07/27 05:26:00;;;;;;;2.53;1.20;;;;;;;16.15;54.89;95911.09;10285048;28;97860;-65
2022/07/27 05:31:02;;;;;;;1.87;1.00;;;;;;;16.36;54.80;95916.34;10286302;28;97826;-66
2022/07/27 05:36:06;;;;;;;2.90;1.17;;;;;;;16.56;54.75;95911.19;10281427;28;97095;-65
2022/07/27 05:41:10;;;;;;;2.35;1.27;;;;;;;16.79;55.21;95915.41;10265171;28;98536;-66
2022/07/27 05:46:13;;;;;;;3.80;1.30;;;;;;;16.90;54.46;95924.59;10282489;28;97014;-66
2022/07/27 05:51:16;;;;;;;3.85;1.20;;;;;;;16.96;53.96;95922.00;10280013;28;97331;-66
2022/07/27 05:56:21;;;;;;;2.95;1.40;;;;;;;17.16;55.32;95930.03;10285390;28;97532;-66
2022/07/27 06:01:23;;;;;;;2.38;1.40;;;;;;;17.43;55.45;95934.59;10293435;28;96896;-66
2022/07/27 06:11:48;;;;;;;7.47;1.85;;;;;;;17.53;54.88;95938.47;10264037;28;98017;-66
2022/07/27 06:16:51;;;;;;;4.82;1.70;;;;;;;17.54;55.01;95940.13;10271971;28;97775;-66
2022/07/27 06:21:54;;;;;;;4.28;1.60;;;;;;;17.57;54.66;95946.81;10272472;28;97656;-67
2022/07/27 06:26:58;;;;;;;3.40;1.48;;;;;;;17.64;54.47;95942.38;10268410;28;99261;-66
2022/07/27 06:32:01;;;;;;;4.57;1.75;;;;;;;17.90;54.56;95946.94;10304065;28;98102;-66
2022/07/27 06:37:04;;;;;;;3.58;1.50;;;;;;;18.17;54.13;95943.50;10303531;28;97073;-67
2022/07/27 06:42:08;;;;;;;3.25;1.50;;;;;;;18.36;54.35;95945.34;10300946;28;96793;-66
2022/07/27 06:47:11;;;;;;;2.42;1.27;;;;;;;18.63;53.32;95953.25;10285064;28;98025;-66
2022/07/27 06:52:14;;;;;;;2.67;1.25;;;;;;;18.67;52.48;95955.31;10288989;28;97766;-66
2022/07/27 06:57:19;;;;;;;2.40;0.90;;;;;;;18.86;50.80;95951.03;10289230;28;97097;-66
2022/07/27 07:02:21;;;;;;;2.80;1.30;;;;;;;19.06;49.81;95950.16;10277364;28;97738;-66
2022/07/27 07:07:25;;;;;;;2.58;1.10;;;;;;;19.32;49.69;95948.44;10299954;28;97340;-66
2022/07/27 07:12:30;;;;;;;1.85;1.13;;;;;;;19.52;48.74;95941.25;10302415;28;96801;-65
2022/07/27 07:17:34;;;;;;;2.83;1.40;;;;;;;19.78;47.77;95950.06;10299420;28;97129;-65
2022/07/27 07:22:37;;;;;;;3.30;0.93;;;;;;;19.98;47.99;95945.47;10320485;28;98038;-66
2022/07/27 07:27:41;;;;;;;2.58;1.20;;;;;;;20.10;48.30;95955.41;10322384;28;97130;-66
2022/07/27 07:32:44;;;;;;;;;;;;;;;20.32;47.79;95948.72;10310250;28;98147;-66
2022/07/27 07:37:47;;;;;;;2.95;1.13;;;;;;;20.49;47.37;95945.50;10309223;28;96820;-66
2022/07/27 07:42:55;;;;;;;1.67;1.05;;;;;;;20.65;47.75;95946.78;10286652;28;97718;-66
2022/07/27 07:47:58;;;;;;;2.35;1.00;;;;;;;20.72;46.29;95951.03;10278837;28;96907;-66
2022/07/27 07:53:01;;;;;;;4.82;1.10;;;;;;;20.83;46.97;95938.09;10297322;28;96774;-66
2022/07/27 07:58:05;;;;;;;1.92;1.00;;;;;;;20.93;45.47;95935.75;10296674;28;96862;-66
2022/07/27 08:03:08;;;;;;;1.70;0.98;;;;;;;21.06;45.45;95938.25;10297226;28;96875;-66
2022/07/27 08:08:11;;;;;;;2.00;0.90;;;;;;;21.16;44.75;95929.78;10296267;28;96863;-66
2022/07/27 08:13:16;;;;;;;2.28;1.27;;;;;;;21.25;44.39;95931.09;10297038;28;96827;-66
2022/07/27 08:18:23;;;;;;;3.58;1.10;;;;;;;21.38;43.92;95929.28;10296444;28;96859;-66
2022/07/27 08:23:26;;;;;;;2.50;1.10;;;;;;;21.69;43.23;95930.97;10302791;28;96763;-66
2022/07/27 08:28:31;;;;;;;4.57;1.00;;;;;;;21.77;42.87;95933.31;10296371;28;97104;-66
2022/07/27 08:33:39;;;;;;;1.63;1.00;;;;;;;21.84;42.77;95939.34;10296151;28;96766;-66
2022/07/27 08:38:42;;;;;;;2.43;1.20;;;;;;;21.92;42.27;95926.75;10295804;28;96815;-66
2022/07/27 08:43:48;;;;;;;1.90;0.93;;;;;;;22.05;41.87;95924.72;10296210;28;96895;-66
2022/07/27 08:48:52;;;;;;;2.72;0.73;;;;;;;22.10;41.74;95920.59;10290582;28;96951;-66
2022/07/27 08:53:56;;;;;;;5.28;1.10;;;;;;;22.22;41.51;95916.91;10291064;28;96845;-67
2022/07/27 08:59:00;;;;;;;4.30;1.10;;;;;;;22.28;41.42;95911.69;10294930;28;96821;-66
2022/07/27 09:04:02;;;;;;;;;;;;;;;22.44;41.79;95916.38;10295886;28;98895;-66
2022/07/27 09:09:05;;;;;;;1.40;0.98;;;;;;;22.55;41.68;95912.09;10295520;28;96967;-67
2022/07/27 09:14:11;;;;;;;4.63;1.30;;;;;;;22.67;41.44;95920.09;10295322;28;96920;-66
2022/07/27 09:19:15;;;;;;;2.35;0.95;;;;;;;22.79;41.21;95929.69;10294808;28;96784;-66
2022/07/27 09:24:18;;;;;;;;;;;;;;;23.02;41.12;95921.94;10301695;28;96835;-66
2022/07/27 09:29:42;;;;;;;1.48;0.82;;;;;;;23.17;40.43;95928.38;10295716;28;96832;-66
2022/07/27 09:34:45;;;;;;;;;;;;;;;23.26;40.97;95920.81;10295351;28;97024;-66
2022/07/27 09:39:48;;;;;;;3.35;1.20;;;;;;;23.34;40.23;95915.16;10291223;28;96809;-66
2022/07/27 09:44:52;;;;;;;2.92;1.17;;;;;;;23.46;39.71;95924.97;10293739;28;98681;-66
2022/07/27 09:50:16;;;;;;;3.05;0.98;;;;;;;23.52;39.42;95913.38;10285887;28;97963;-66
2022/07/27 09:55:20;;;;;;;1.02;0.77;;;;;;;23.60;39.50;95915.63;10286571;28;96925;-66
2022/07/27 10:00:25;;;;;;;;;;;;;;;23.83;39.51;95920.06;10294634;28;96863;-66
2022/07/27 10:05:28;;;;;;;;;;;;;;;23.82;39.59;95909.66;10299591;28;97799;-66
2022/07/27 10:10:31;;;;;;;2.35;1.13;;;;;;;23.99;39.11;95912.34;10300891;28;96674;-67
2022/07/27 10:15:35;;;;;;;1.30;0.73;;;;;;;24.25;38.36;95916.28;10300796;28;97174;-66
2022/07/27 10:20:41;;;;;;;2.67;1.30;;;;;;;24.50;38.08;95907.84;10308608;28;96749;-67
2022/07/27 10:26:19;;;;;;;1.67;1.05;;;;;;;24.47;37.85;95903.00;10289573;28;97930;-67
2022/07/27 10:31:25;;;;;;;1.75;1.20;;;;;;;24.44;38.34;95896.28;10300264;28;96834;-66
2022/07/27 10:36:52;;;;;;;2.42;1.17;;;;;;;24.47;38.05;95895.81;10299880;28;96797;-67
2022/07/27 10:42:23;;;;;;;2.97;1.13;;;;;;;24.69;37.99;95901.19;10287920;28;97209;-66
2022/07/27 10:47:36;;;;;;;3.17;1.25;;;;;;;24.76;37.56;95902.88;10286756;28;97008;-67
2022/07/27 10:52:41;;;;;;;1.73;1.17;;;;;;;24.91;37.51;95888.97;10295808;28;98456;-66
2022/07/27 10:57:44;;;;;;;2.47;0.93;;;;;;;24.92;37.36;95890.56;10298837;28;96887;-66
2022/07/27 11:02:48;;;;;;;3.47;1.05;;;;;;;25.07;37.17;95890.78;10292242;28;96777;-67
2022/07/27 11:07:51;;;;;;;1.75;1.02;;;;;;;25.31;36.87;95891.34;10298733;28;96718;-67
2022/07/27 11:13:14;;;;;;;1.92;1.00;;;;;;;25.55;36.57;95889.22;10297618;28;97016;-67
2022/07/27 11:18:25;;;;;;;3.47;1.20;;;;;;;25.61;36.10;95884.72;10299180;28;96772;-67
2022/07/27 11:23:30;;;;;;;3.10;1.00;;;;;;;25.50;36.25;95872.28;10303966;28;96762;-67
2022/07/27 11:28:53;;;;;;;4.03;1.10;;;;;;;25.75;35.92;95877.13;10298143;28;97491;-67
2022/07/27 11:33:59;;;;;;;2.07;1.00;;;;;;;25.90;35.81;95863.09;10297067;28;98314;-67
2022/07/27 11:39:02;;;;;;;3.95;1.40;;;;;;;26.07;35.49;95857.59;10297657;28;96781;-67
2022/07/27 11:44:08;;;;;;;2.10;1.07;;;;;;;26.27;34.88;95857.78;10297691;28;96804;-67
2022/07/27 11:49:14;;;;;;;1.73;1.20;;;;;;;26.46;34.70;95865.41;10291748;28;96777;-67
2022/07/27 11:54:20;;;;;;;5.63;1.30;;;;;;;26.61;34.38;95852.13;10296782;28;97006;-67
2022/07/27 11:59:24;;;;;;;2.35;1.23;;;;;;;26.57;34.30;95861.72;10297585;28;96862;-67
2022/07/27 12:04:29;;;;;;;2.03;1.10;;;;;;;26.71;34.21;95849.50;10290199;28;97431;-67
2022/07/27 12:09:35;;;;;;;2.28;1.13;;;;;;;26.79;33.97;95842.81;10297770;28;97095;-67
2022/07/27 12:14:42;;;;;;;2.40;0.95;;;;;;;27.02;33.62;95835.47;10296354;28;98006;-67
2022/07/27 12:19:59;;;;;;;1.55;1.13;;;;;;;27.27;33.04;95837.44;10300306;28;97032;-67
2022/07/27 12:25:06;;;;;;;1.23;0.90;;;;;;;27.22;33.29;95824.00;10290975;28;96873;-67
2022/07/27 12:30:18;;;;;;;3.70;1.17;;;;;;;27.28;32.84;95822.94;10296663;28;98636;-67
2022/07/27 12:35:25;;;;;;;3.65;0.90;;;;;;;27.14;33.08;95816.47;10291052;28;97132;-67
2022/07/27 12:40:29;;;;;;;2.67;1.13;;;;;;;27.24;33.22;95819.19;10289330;28;97001;-67
2022/07/27 12:45:34;;;;;;;2.65;1.20;;;;;;;27.36;33.01;95819.75;10306137;28;96846;-67
2022/07/27 12:50:40;;;;;;;2.58;0.90;;;;;;;27.14;33.75;95816.47;10289609;28;96759;-67
2022/07/27 12:55:44;;;;;;;2.40;1.23;;;;;;;27.41;32.99;95811.72;10295479;28;97094;-67
2022/07/27 13:00:47;;;;;;;3.58;1.20;;;;;;;27.59;32.71;95813.06;10295672;28;96778;-67
2022/07/27 13:05:52;;;;;;;2.25;1.10;;;;;;;27.93;32.27;95806.44;10294908;28;97118;-67
2022/07/27 13:10:58;;;;;;;4.93;1.35;;;;;;;28.23;32.00;95802.91;10295084;28;97040;-67
2022/07/27 13:16:01;;;;;;;3.75;0.60;;;;;;;28.50;31.69;95799.94;10294518;28;96973;-67
2022/07/27 13:21:05;;;;;;;1.30;1.13;;;;;;;28.66;31.11;95807.97;10296606;28;97590;-67
2022/07/27 13:26:08;;;;;;;2.80;1.38;;;;;;;28.66;31.01;95794.53;10294613;28;96956;-67
2022/07/27 13:31:11;;;;;;;3.03;1.27;;;;;;;28.66;31.41;95786.47;10294605;28;96922;-67
2022/07/27 13:36:15;;;;;;;1.92;1.35;;;;;;;28.52;31.28;95784.34;10295156;28;98906;-67
2022/07/27 13:41:18;;;;;;;2.83;1.08;;;;;;;28.55;31.48;95770.38;10301517;28;96725;-67
2022/07/27 13:46:21;;;;;;;3.00;1.17;;;;;;;29.04;30.82;95765.38;10301910;28;97534;-67
2022/07/27 13:51:26;;;;;;;3.63;1.20;;;;;;;29.18;30.71;95761.78;10299668;28;97881;-67
2022/07/27 13:56:31;;;;;;;2.08;1.10;;;;;;;29.26;30.61;95762.28;10300028;28;96820;-67
2022/07/27 14:01:36;;;;;;;1.27;1.00;;;;;;;29.33;30.32;95762.75;10298631;28;96778;-67
2022/07/27 14:06:43;;;;;;;4.28;1.13;;;;;;;29.62;29.81;95756.69;10300495;28;96903;-67
2022/07/27 14:11:49;;;;;;;3.80;1.20;;;;;;;29.78;29.37;95757.38;10296092;28;96972;-67
2022/07/27 14:16:54;;;;;;;3.13;1.02;;;;;;;29.90;29.09;95745.16;10298790;28;97081;-67
2022/07/27 14:21:59;;;;;;;2.67;1.40;;;;;;;30.65;28.73;95746.56;10293204;28;96879;-67
2022/07/27 14:27:01;;;;;;;2.55;1.13;;;;;;;32.07;27.46;95745.91;10297307;28;98029;-67
2022/07/27 14:32:05;;;;;;;1.80;0.98;;;;;;;33.75;25.96;95742.78;10299837;28;96731;-68
2022/07/27 14:37:09;;;;;;;2.05;1.20;;;;;;;35.72;23.72;95737.81;10300592;28;96954;-68
2022/07/27 14:42:13;;;;;;;1.85;1.00;;;;;;;37.46;22.10;95741.75;10300418;28;98419;-68
2022/07/27 14:47:16;;;;;;;2.20;1.00;;;;;;;37.94;21.43;95728.66;10291418;28;97007;-68
2022/07/27 14:52:20;;;;;;;2.65;1.00;;;;;;;39.15;20.51;95741.19;10297967;28;97943;-68
2022/07/27 14:57:23;;;;;;;3.38;1.10;;;;;;;39.93;19.96;95728.19;10298859;28;96801;-68
2022/07/27 15:02:26;;;;;;;1.83;1.10;;;;;;;39.79;19.08;95728.59;10298912;28;98818;-69
2022/07/27 15:07:30;;;;;;;1.60;0.88;;;;;;;38.79;20.01;95726.41;10299125;28;98563;-69
2022/07/27 15:12:33;;;;;;;1.33;0.80;;;;;;;38.93;19.75;95721.38;10298230;28;96803;-68
2022/07/27 15:17:39;;;;;;;1.33;0.80;;;;;;;40.26;18.68;95713.41;10298314;28;97490;-68
2022/07/27 15:22:43;;;;;;;1.77;1.00;;;;;;;40.72;18.39;95724.69;10294136;28;98437;-68
2022/07/27 15:27:46;;;;;;;3.15;0.93;;;;;;;41.54;17.54;95717.53;10283354;28;97055;-69
2022/07/27 15:32:49;;;;;;;1.42;0.93;;;;;;;41.98;17.17;95717.19;10294239;28;97363;-69
2022/07/27 15:37:53;;;;;;;2.85;0.80;;;;;;;40.77;18.14;95702.53;10307882;28;96775;-69
2022/07/27 15:42:56;;;;;;;2.50;1.10;;;;;;;41.15;17.96;95706.50;10281188;28;97099;-69
2022/07/27 15:47:59;;;;;;;2.72;1.00;;;;;;;41.87;17.23;95708.00;10293574;28;97909;-69
2022/07/27 15:53:04;;;;;;;2.78;1.00;;;;;;;41.95;16.86;95706.16;10281121;28;96770;-69
2022/07/27 15:58:07;;;;;;;3.50;1.10;;;;;;;41.76;17.00;95718.72;10281518;28;97029;-69
2022/07/27 16:03:11;;;;;;;1.60;0.82;;;;;;;42.25;16.55;95700.03;10292081;28;96931;-68
2022/07/27 16:08:18;;;;;;;1.90;0.95;;;;;;;42.24;16.56;95691.03;10284901;28;96823;-69
2022/07/27 16:13:25;;;;;;;2.83;0.93;;;;;;;41.97;16.97;95688.19;10278195;28;96832;-69
2022/07/27 16:18:28;;;;;;;1.70;1.10;;;;;;;41.37;17.22;95679.59;10267421;28;96974;-69
2022/07/27 16:23:32;;;;;;;2.80;0.77;;;;;;;41.59;17.17;95680.78;10281959;28;98962;-69
2022/07/27 16:28:38;;;;;;;3.15;1.10;;;;;;;41.74;17.01;95679.13;10271708;28;97405;-69
2022/07/27 16:33:43;;;;;;;2.38;0.90;;;;;;;41.94;16.64;95669.72;10299333;28;96960;-69
2022/07/27 16:38:50;;;;;;;1.42;0.93;;;;;;;41.85;16.73;95669.16;10294586;28;96841;-69
2022/07/27 16:43:53;;;;;;;4.35;1.08;;;;;;;40.92;17.04;95666.13;10293528;28;97018;-69
2022/07/27 16:48:55;;;;;;;3.33;1.00;;;;;;;39.06;18.64;95664.81;10284876;28;97211;-69
2022/07/27 16:54:00;;;;;;;2.42;1.02;;;;;;;38.01;19.20;95662.66;10270003;28;96901;-68
2022/07/27 16:59:03;;;;;;;2.95;1.27;;;;;;;36.66;20.65;95668.25;10284524;28;98406;-68
2022/07/27 17:04:06;;;;;;;1.70;1.20;;;;;;;36.61;20.95;95666.53;10283253;28;96859;-67
2022/07/27 17:09:10;;;;;;;2.88;1.10;;;;;;;36.78;21.15;95668.38;10268862;28;96891;-70
2022/07/27 17:14:15;;;;;;;2.58;1.10;;;;;;;36.98;20.22;95669.50;10271168;28;96944;-68
2022/07/27 17:19:19;;;;;;;2.40;1.70;;;;;;;36.91;20.65;95667.31;10266743;28;97299;-68
2022/07/27 17:24:23;;;;;;;3.22;1.73;;;;;;;37.37;20.47;95670.19;10267398;28;96862;-66
2022/07/27 17:29:27;;;;;;;1.60;1.02;;;;;;;37.55;20.11;95677.06;10290734;28;97050;-69
2022/07/27 17:34:31;;;;;;;2.15;1.05;;;;;;;37.57;19.86;95669.34;10296451;28;96810;-68
2022/07/27 17:39:35;;;;;;;2.97;1.30;;;;;;;37.83;19.48;95676.50;10293231;28;97237;-68
2022/07/27 17:44:39;;;;;;;2.25;1.25;;;;;;;37.24;20.15;95679.44;10290372;28;98469;-68
2022/07/27 17:49:42;;;;;;;1.88;0.95;;;;;;;37.16;20.58;95673.72;10289798;28;97280;-68
2022/07/27 17:54:47;;;;;;;5.13;3.13;;;;;;;37.23;20.67;95672.38;10294650;28;98949;-68
2022/07/27 17:59:50;;;;;;;5.05;3.05;;;;;;;36.27;20.85;95671.03;10300421;28;96997;-68
2022/07/27 18:04:53;;;;;;;4.97;3.80;;;;;;;35.05;21.99;95674.69;10310194;28;97464;-68
2022/07/27 18:09:58;;;;;;;1.63;1.20;;;;;;;33.02;24.13;95684.03;10299118;28;98428;-68
2022/07/27 18:20:21;;;;;;;3.38;1.65;;;;;;;30.35;26.98;95687.63;10289753;28;97359;-68
2022/07/27 18:25:25;;;;;;;;;;;;;;;29.52;27.09;95690.25;10308708;28;97037;-68
2022/07/27 18:30:28;;;;;;;3.10;1.25;;;;;;;28.83;29.09;95684.78;10305916;28;97978;-68
2022/07/27 18:35:31;;;;;;;3.88;1.58;;;;;;;28.26;30.46;95691.47;10300486;28;96931;-68
2022/07/27 18:40:35;;;;;;;2.75;1.30;;;;;;;27.55;31.60;95693.16;10316005;28;96918;-67
2022/07/27 18:45:39;;;;;;;2.72;1.20;;;;;;;27.15;31.92;95700.13;10304364;28;98360;-68
2022/07/27 18:50:42;;;;;;;1.73;1.50;;;;;;;26.77;32.59;95704.84;10293854;28;98699;-67
2022/07/27 18:55:47;;;;;;;4.70;1.40;;;;;;;26.40;32.85;95695.03;10298720;28;96733;-67
2022/07/27 19:00:58;;;;;;;2.40;1.60;;;;;;;26.11;33.64;95690.06;10298706;28;97009;-67
2022/07/27 19:06:00;;;;;;;;;;;;;;;25.89;32.80;95700.91;10298290;28;98606;-67
2022/07/27 19:11:05;;;;;;;2.03;1.20;;;;;;;25.68;33.81;95695.41;10297650;28;96974;-67
2022/07/27 19:16:09;;;;;;;2.95;1.52;;;;;;;25.38;34.30;95695.97;10296883;28;96806;-69
2022/07/27 19:21:12;;;;;;;2.90;1.60;;;;;;;25.08;34.82;95697.31;10299330;28;96989;-67
2022/07/27 19:26:16;;;;;;;2.55;1.42;;;;;;;24.97;35.56;95703.59;10297541;28;96813;-67
2022/07/27 19:31:19;;;;;;;2.22;1.55;;;;;;;24.80;35.11;95699.13;10297783;28;96848;-67
2022/07/27 19:36:25;;;;;;;1.80;1.40;;;;;;;24.54;35.82;95710.56;10296101;28;96810;-67
2022/07/27 19:41:29;;;;;;;4.38;1.75;;;;;;;24.33;36.41;95718.31;10294468;28;98799;-67
2022/07/27 19:46:32;;;;;;;4.57;1.75;;;;;;;24.17;36.33;95716.53;10275702;28;98012;-67
2022/07/27 19:51:35;;;;;;;2.28;1.40;;;;;;;23.99;36.89;95720.25;10279186;28;97693;-67
2022/07/27 19:56:39;;;;;;;3.65;1.65;;;;;;;23.90;36.94;95725.19;10276794;28;97187;-67
2022/07/27 20:01:42;;;;;;;2.42;1.58;;;;;;;23.75;37.13;95728.44;10268910;28;97218;-67
2022/07/27 20:06:45;;;;;;;4.07;1.50;;;;;;;23.61;37.41;95732.50;10281346;28;97359;-67
2022/07/27 20:11:49;;;;;;;5.07;1.70;;;;;;;23.44;37.74;95733.28;10292393;28;96855;-68
2022/07/27 20:16:52;;;;;;;;;;;;;;;23.33;37.35;95737.63;10306134;28;96860;-67
2022/07/27 20:21:56;;;;;;;2.30;1.20;;;;;;;23.34;37.77;95739.25;10300233;28;99157;-67
2022/07/27 20:27:00;;;;;;;2.60;1.67;;;;;;;23.30;38.09;95737.31;10296349;28;97995;-67
2022/07/27 20:32:03;;;;;;;;;;;;;;;23.23;37.13;95753.41;10305982;28;97300;-67
2022/07/27 20:37:06;;;;;;;3.90;1.60;;;;;;;23.14;38.26;95749.53;10295731;28;98420;-67
2022/07/27 20:42:10;;;;;;;2.67;1.50;;;;;;;22.99;38.94;95748.22;10299182;28;97540;-67
2022/07/27 20:47:13;;;;;;;;;;;;;;;22.86;38.35;95759.13;10310021;28;96870;-67
2022/07/27 20:52:16;;;;;;;3.22;1.40;;;;;;;22.70;39.44;95759.88;10294012;28;96765;-66
2022/07/27 20:57:20;;;;;;;3.15;1.40;;;;;;;22.63;39.83;95749.38;10285946;28;96967;-67
2022/07/27 21:02:23;;;;;;;2.22;1.52;;;;;;;22.62;39.99;95751.19;10296733;28;96974;-67
2022/07/27 21:07:26;;;;;;;4.30;1.83;;;;;;;22.64;40.24;95756.28;10282649;28;97523;-59
2022/07/27 21:12:32;;;;;;;;;;;;;;;22.72;39.40;95755.94;10293692;28;97322;-63
2022/07/27 21:17:35;;;;;;;2.90;1.53;;;;;;;22.76;39.77;95758.94;10284584;28;97600;-63
2022/07/27 21:22:38;;;;;;;3.63;2.03;;;;;;;22.73;40.14;95759.41;10298459;28;96931;-63
2022/07/27 21:27:42;;;;;;;3.28;1.80;;;;;;;22.69;40.35;95763.59;10292131;28;97305;-63
2022/07/27 21:32:46;;;;;;;3.88;1.88;;;;;;;22.65;40.46;95757.09;10299523;28;96889;-62
2022/07/27 21:37:49;;;;;;;4.07;1.60;;;;;;;22.59;40.75;95757.00;10283501;28;98434;-62
2022/07/27 21:42:53;;;;;;;4.95;1.67;;;;;;;22.52;40.99;95752.84;10277293;28;97467;-62
2022/07/27 21:47:56;;;;;;;2.75;1.55;;;;;;;22.46;40.85;95749.28;10269758;28;97118;-62
2022/07/27 21:52:59;;;;;;;2.67;1.73;;;;;;;22.43;40.80;95755.84;10282049;28;98182;-63
2022/07/27 21:58:03;;;;;;;3.75;2.03;;;;;;;22.39;40.94;95761.88;10290465;28;96865;-65
2022/07/27 22:03:07;;;;;;;4.68;1.60;;;;;;;22.36;41.12;95757.03;10291134;28;97029;-62
2022/07/27 22:08:10;;;;;;;3.33;1.73;;;;;;;22.33;40.99;95754.81;10287494;28;98520;-66
2022/07/27 22:13:14;;;;;;;4.32;2.00;;;;;;;22.27;41.32;95761.09;10288417;28;99166;-64
2022/07/27 22:18:17;;;;;;;5.30;2.10;;;;;;;22.21;41.50;95765.47;10294146;28;98515;-63
2022/07/27 22:23:20;;;;;;;3.20;1.90;;;;;;;22.11;41.91;95771.41;10301594;28;97541;-62
2022/07/27 22:28:24;;;;;;;2.25;1.95;;;;;;;22.04;41.77;95770.72;10305534;28;97879;-62
2022/07/27 22:33:28;;;;;;;3.03;1.60;;;;;;;21.95;42.11;95780.06;10285774;28;98339;-62
2022/07/27 22:38:31;;;;;;;3.55;2.20;;;;;;;21.88;42.13;95770.34;10291192;28;98378;-62
2022/07/27 22:43:35;;;;;;;3.63;1.70;;;;;;;21.87;42.25;95759.94;10279362;28;97960;-62
2022/07/27 22:48:38;;;;;;;2.35;1.65;;;;;;;21.85;42.33;95770.81;10290119;28;96913;-62
2022/07/27 22:53:41;;;;;;;3.47;1.98;;;;;;;21.85;42.09;95764.69;10279865;28;96821;-64
2022/07/27 22:58:45;;;;;;;3.42;1.70;;;;;;;21.79;41.60;95778.88;10286490;28;99096;-62
2022/07/27 23:03:48;;;;;;;2.17;1.70;;;;;;;21.72;42.29;95773.69;10284971;28;99851;-61
2022/07/27 23:08:51;;;;;;;3.00;1.50;;;;;;;21.64;42.21;95779.31;10284022;28;97597;-62
2022/07/27 23:13:55;;;;;;;3.15;1.60;;;;;;;21.45;42.05;95774.06;10277794;28;98328;-62
2022/07/27 23:18:58;;;;;;;2.85;1.70;;;;;;;21.25;41.64;95770.88;10280493;28;98497;-65
2022/07/27 23:24:01;;;;;;;3.80;2.00;;;;;;;21.10;43.43;95774.78;10284608;28;97259;-62
2022/07/27 23:29:08;;;;;;;2.28;1.90;;;;;;;20.84;44.46;95769.78;10284475;28;97759;-62
2022/07/27 23:34:10;;;;;;;2.42;1.90;;;;;;;20.73;44.79;95779.31;10284615;28;97112;-62
2022/07/27 23:39:14;;;;;;;3.70;1.95;;;;;;;20.53;45.25;95769.75;10284989;28;98328;-62
2022/07/27 23:44:18;;;;;;;2.67;1.90;;;;;;;20.45;45.29;95774.53;10282513;28;98382;-62
2022/07/27 23:49:21;;;;;;;3.38;2.00;;;;;;;20.32;45.23;95770.16;10286496;28;98585;-63
2022/07/27 23:54:24;;;;;;;2.47;2.00;;;;;;;20.19;45.70;95773.78;10278300;28;98723;-62